sensor_id;sensor_type;location;lat;lon;timestamp;temperature;humidity
6666;DHT22;3369;49.906;8.598;2022-09-09T00:04:28;17.00;99.90
6666;DHT22;3369;49.906;8.598;2022-09-09T00:09:33;16.90;99.90
6666;DHT22;3369;49.906;8.598;2022-09-09T00:12:15;16.80;99.90
6666;DHT22;3369;49.906;8.598;2022-09-09T00:14:50;16.80;99.90
6666;DHT22;3369;49.906;8.598;2022-09-09T00:17:36;16.80;99.90
6666;DHT22;3369;49.906;8.598;2022-09-09T00:20:12;16.70;99.90
6666;DHT22;3369;49.906;8.598;2022-09-09T00:22:42;16.80;99.90
6666;DHT22;3369;49.906;8.598;2022-09-09T00:25:23;16.70;99.90
6666;DHT22;3369;49.906;8.598;2022-09-09T00:27:52;16.70;99.90
6666;DHT22;3369;49.906;8.598;2022-09-09T00:30:29;16.70;99.90
6666;DHT22;3369;49.906;8.598;2022-09-09T00:33:01;16.70;99.90
6666;DHT22;3369;49.906;8.598;2022-09-09T00:35:47;16.60;99.90
6666;DHT22;3369;49.906;8.598;2022-09-09T00:38:24;16.60;99.90
6666;DHT22;3369;49.906;8.598;2022-09-09T00:41:21;16.60;99.90
6666;DHT22;3369;49.906;8.598;2022-09-09T00:44:13;16.60;99.90
6666;DHT22;3369;49.906;8.598;2022-09-09T00:49:56;16.50;99.90
6666;DHT22;3369;49.906;8.598;2022-09-09T00:55:49;16.50;99.90
6666;DHT22;3369;49.906;8.598;2022-09-09T00:58:19;16.50;99.90
6666;DHT22;3369;49.906;8.598;2022-09-09T01:00:49;16.50;99.90
6666;DHT22;3369;49.906;8.598;2022-09-09T01:06:34;16.50;99.90
6666;DHT22;3369;49.906;8.598;2022-09-09T01:09:26;16.50;99.90
6666;DHT22;3369;49.906;8.598;2022-09-09T01:14:39;16.50;99.90
6666;DHT22;3369;49.906;8.598;2022-09-09T01:17:24;16.50;99.90
6666;DHT22;3369;49.906;8.598;2022-09-09T01:20:20;16.50;99.90
6666;DHT22;3369;49.906;8.598;2022-09-09T01:26:07;16.50;99.90
6666;DHT22;3369;49.906;8.598;2022-09-09T01:28:34;16.50;99.90
6666;DHT22;3369;49.906;8.598;2022-09-09T01:31:04;16.50;99.90
6666;DHT22;3369;49.906;8.598;2022-09-09T01:33:31;16.40;99.90
6666;DHT22;3369;49.906;8.598;2022-09-09T01:57:34;16.40;99.90
6666;DHT22;3369;49.906;8.598;2022-09-09T02:00:10;16.40;99.90
6666;DHT22;3369;49.906;8.598;2022-09-09T02:05:40;16.40;99.90
6666;DHT22;3369;49.906;8.598;2022-09-09T02:08:14;16.30;99.90
6666;DHT22;3369;49.906;8.598;2022-09-09T02:10:48;16.30;99.90
6666;DHT22;3369;49.906;8.598;2022-09-09T02:13:17;16.30;99.90
6666;DHT22;3369;49.906;8.598;2022-09-09T02:15:56;16.40;99.90
6666;DHT22;3369;49.906;8.598;2022-09-09T02:18:30;16.40;99.90
6666;DHT22;3369;49.906;8.598;2022-09-09T02:20:58;16.40;99.90
6666;DHT22;3369;49.906;8.598;2022-09-09T02:23:25;16.40;99.90
6666;DHT22;3369;49.906;8.598;2022-09-09T02:25:51;16.40;99.90
6666;DHT22;3369;49.906;8.598;2022-09-09T02:28:20;16.40;99.90
6666;DHT22;3369;49.906;8.598;2022-09-09T02:30:48;16.40;99.90
6666;DHT22;3369;49.906;8.598;2022-09-09T02:33:19;16.40;99.90
6666;DHT22;3369;49.906;8.598;2022-09-09T02:35:45;16.50;99.90
6666;DHT22;3369;49.906;8.598;2022-09-09T02:38:13;16.50;99.90
6666;DHT22;3369;49.906;8.598;2022-09-09T02:40:40;16.50;99.90
6666;DHT22;3369;49.906;8.598;2022-09-09T02:43:06;16.50;99.90
6666;DHT22;3369;49.906;8.598;2022-09-09T02:45:42;16.50;99.90
6666;DHT22;3369;49.906;8.598;2022-09-09T02:48:17;16.50;99.90
6666;DHT22;3369;49.906;8.598;2022-09-09T02:53:43;16.60;99.90
6666;DHT22;3369;49.906;8.598;2022-09-09T02:56:16;16.60;99.90
6666;DHT22;3369;49.906;8.598;2022-09-09T02:58:42;16.60;99.90
6666;DHT22;3369;49.906;8.598;2022-09-09T03:01:08;16.70;99.90
6666;DHT22;3369;49.906;8.598;2022-09-09T03:03:34;16.70;99.90
6666;DHT22;3369;49.906;8.598;2022-09-09T03:06:00;16.70;99.90
6666;DHT22;3369;49.906;8.598;2022-09-09T03:08:26;16.60;99.90
6666;DHT22;3369;49.906;8.598;2022-09-09T03:10:54;16.70;99.90
6666;DHT22;3369;49.906;8.598;2022-09-09T03:13:19;16.60;99.90
6666;DHT22;3369;49.906;8.598;2022-09-09T03:15:45;16.60;99.90
6666;DHT22;3369;49.906;8.598;2022-09-09T03:18:10;16.60;99.90
6666;DHT22;3369;49.906;8.598;2022-09-09T03:20:36;16.60;99.90
6666;DHT22;3369;49.906;8.598;2022-09-09T03:23:02;16.60;99.90
6666;DHT22;3369;49.906;8.598;2022-09-09T03:25:28;16.60;99.90
6666;DHT22;3369;49.906;8.598;2022-09-09T03:27:55;16.60;99.90
6666;DHT22;3369;49.906;8.598;2022-09-09T03:30:25;16.50;99.90
6666;DHT22;3369;49.906;8.598;2022-09-09T03:32:51;16.50;99.90
6666;DHT22;3369;49.906;8.598;2022-09-09T03:35:17;16.50;99.90
6666;DHT22;3369;49.906;8.598;2022-09-09T03:37:43;16.50;99.90
6666;DHT22;3369;49.906;8.598;2022-09-09T03:40:09;16.50;99.90
6666;DHT22;3369;49.906;8.598;2022-09-09T03:42:36;16.50;99.90
6666;DHT22;3369;49.906;8.598;2022-09-09T03:45:06;16.40;99.90
6666;DHT22;3369;49.906;8.598;2022-09-09T03:47:32;16.40;99.90
6666;DHT22;3369;49.906;8.598;2022-09-09T03:49:58;16.40;99.90
6666;DHT22;3369;49.906;8.598;2022-09-09T03:52:24;16.40;99.90
6666;DHT22;3369;49.906;8.598;2022-09-09T03:54:52;16.40;99.90
6666;DHT22;3369;49.906;8.598;2022-09-09T03:57:18;16.40;99.90
6666;DHT22;3369;49.906;8.598;2022-09-09T03:59:44;16.40;99.90
6666;DHT22;3369;49.906;8.598;2022-09-09T04:02:10;16.30;99.90
6666;DHT22;3369;49.906;8.598;2022-09-09T04:04:36;16.30;99.90
6666;DHT22;3369;49.906;8.598;2022-09-09T04:07:02;16.30;99.90
6666;DHT22;3369;49.906;8.598;2022-09-09T04:09:28;16.30;99.90
6666;DHT22;3369;49.906;8.598;2022-09-09T04:11:54;16.30;99.90
6666;DHT22;3369;49.906;8.598;2022-09-09T04:14:20;16.20;99.90
6666;DHT22;3369;49.906;8.598;2022-09-09T04:16:46;16.20;99.90
6666;DHT22;3369;49.906;8.598;2022-09-09T04:19:12;16.20;99.90
6666;DHT22;3369;49.906;8.598;2022-09-09T04:21:40;16.20;99.90
6666;DHT22;3369;49.906;8.598;2022-09-09T04:24:09;16.10;99.90
6666;DHT22;3369;49.906;8.598;2022-09-09T04:26:36;16.10;99.90
6666;DHT22;3369;49.906;8.598;2022-09-09T04:29:03;16.10;99.90
6666;DHT22;3369;49.906;8.598;2022-09-09T04:31:29;16.10;99.90
6666;DHT22;3369;49.906;8.598;2022-09-09T04:33:54;16.10;99.90
6666;DHT22;3369;49.906;8.598;2022-09-09T04:36:20;16.10;99.90
6666;DHT22;3369;49.906;8.598;2022-09-09T04:38:46;16.10;99.90
6666;DHT22;3369;49.906;8.598;2022-09-09T04:41:13;16.20;99.90
6666;DHT22;3369;49.906;8.598;2022-09-09T04:43:39;16.10;99.90
6666;DHT22;3369;49.906;8.598;2022-09-09T04:46:05;16.10;99.90
6666;DHT22;3369;49.906;8.598;2022-09-09T04:48:31;16.10;99.90
6666;DHT22;3369;49.906;8.598;2022-09-09T04:51:03;16.10;99.90
6666;DHT22;3369;49.906;8.598;2022-09-09T04:53:29;16.10;99.90
6666;DHT22;3369;49.906;8.598;2022-09-09T04:56:10;16.10;99.90
6666;DHT22;3369;49.906;8.598;2022-09-09T04:58:36;16.00;99.90
6666;DHT22;3369;49.906;8.598;2022-09-09T05:01:28;16.00;99.90
6666;DHT22;3369;49.906;8.598;2022-09-09T05:03:54;15.90;99.90
6666;DHT22;3369;49.906;8.598;2022-09-09T05:06:21;15.90;99.90
6666;DHT22;3369;49.906;8.598;2022-09-09T05:08:47;15.90;99.90
6666;DHT22;3369;49.906;8.598;2022-09-09T05:11:19;15.80;99.90
6666;DHT22;3369;49.906;8.598;2022-09-09T05:13:46;15.80;99.90
6666;DHT22;3369;49.906;8.598;2022-09-09T05:16:13;15.80;99.90
6666;DHT22;3369;49.906;8.598;2022-09-09T05:18:39;15.80;99.90
6666;DHT22;3369;49.906;8.598;2022-09-09T05:21:06;15.80;99.90
6666;DHT22;3369;49.906;8.598;2022-09-09T05:23:32;15.80;99.90
6666;DHT22;3369;49.906;8.598;2022-09-09T05:25:59;15.70;99.90
6666;DHT22;3369;49.906;8.598;2022-09-09T05:28:26;15.80;99.90
6666;DHT22;3369;49.906;8.598;2022-09-09T05:30:59;15.80;99.90
6666;DHT22;3369;49.906;8.598;2022-09-09T05:33:26;15.70;99.90
6666;DHT22;3369;49.906;8.598;2022-09-09T05:36:00;15.80;99.90
6666;DHT22;3369;49.906;8.598;2022-09-09T05:38:27;15.80;99.90
6666;DHT22;3369;49.906;8.598;2022-09-09T05:40:53;15.70;99.90
6666;DHT22;3369;49.906;8.598;2022-09-09T05:43:22;15.80;99.90
6666;DHT22;3369;49.906;8.598;2022-09-09T05:45:48;15.80;99.90
6666;DHT22;3369;49.906;8.598;2022-09-09T05:48:17;15.80;99.90
6666;DHT22;3369;49.906;8.598;2022-09-09T05:50:43;15.80;99.90
6666;DHT22;3369;49.906;8.598;2022-09-09T05:53:09;15.80;99.90
6666;DHT22;3369;49.906;8.598;2022-09-09T05:55:36;15.80;99.90
6666;DHT22;3369;49.906;8.598;2022-09-09T05:58:01;15.70;99.90
6666;DHT22;3369;49.906;8.598;2022-09-09T06:00:28;15.70;99.90
6666;DHT22;3369;49.906;8.598;2022-09-09T06:02:54;15.70;99.90
6666;DHT22;3369;49.906;8.598;2022-09-09T06:05:20;15.70;99.90
6666;DHT22;3369;49.906;8.598;2022-09-09T06:07:48;15.70;99.90
6666;DHT22;3369;49.906;8.598;2022-09-09T06:10:13;15.80;99.90
6666;DHT22;3369;49.906;8.598;2022-09-09T06:12:39;15.80;99.90
6666;DHT22;3369;49.906;8.598;2022-09-09T06:15:05;15.80;99.90
6666;DHT22;3369;49.906;8.598;2022-09-09T06:17:32;15.90;99.90
6666;DHT22;3369;49.906;8.598;2022-09-09T06:19:58;16.00;99.90
6666;DHT22;3369;49.906;8.598;2022-09-09T06:22:23;16.00;99.90
6666;DHT22;3369;49.906;8.598;2022-09-09T06:24:49;16.10;99.90
6666;DHT22;3369;49.906;8.598;2022-09-09T06:27:16;16.10;99.90
6666;DHT22;3369;49.906;8.598;2022-09-09T06:29:42;16.20;99.90
6666;DHT22;3369;49.906;8.598;2022-09-09T06:32:07;16.20;99.90
6666;DHT22;3369;49.906;8.598;2022-09-09T06:34:34;16.30;99.90
6666;DHT22;3369;49.906;8.598;2022-09-09T06:37:01;16.30;99.90
6666;DHT22;3369;49.906;8.598;2022-09-09T06:39:26;16.40;99.90
6666;DHT22;3369;49.906;8.598;2022-09-09T06:41:52;16.40;99.90
6666;DHT22;3369;49.906;8.598;2022-09-09T06:44:19;16.40;99.90
6666;DHT22;3369;49.906;8.598;2022-09-09T06:46:44;16.50;99.90
6666;DHT22;3369;49.906;8.598;2022-09-09T06:49:13;16.50;99.90
6666;DHT22;3369;49.906;8.598;2022-09-09T06:51:39;16.50;99.90
6666;DHT22;3369;49.906;8.598;2022-09-09T06:54:08;16.60;99.90
6666;DHT22;3369;49.906;8.598;2022-09-09T06:56:43;16.60;99.90
6666;DHT22;3369;49.906;8.598;2022-09-09T06:59:10;16.60;99.90
6666;DHT22;3369;49.906;8.598;2022-09-09T07:01:42;16.70;99.90
6666;DHT22;3369;49.906;8.598;2022-09-09T07:04:12;16.70;99.90
6666;DHT22;3369;49.906;8.598;2022-09-09T07:06:43;16.70;99.90
6666;DHT22;3369;49.906;8.598;2022-09-09T07:09:14;16.70;99.90
6666;DHT22;3369;49.906;8.598;2022-09-09T07:11:48;16.70;99.90
6666;DHT22;3369;49.906;8.598;2022-09-09T07:14:14;16.70;99.90
6666;DHT22;3369;49.906;8.598;2022-09-09T07:16:44;16.70;99.90
6666;DHT22;3369;49.906;8.598;2022-09-09T07:19:11;16.80;99.90
6666;DHT22;3369;49.906;8.598;2022-09-09T07:21:38;16.80;99.90
6666;DHT22;3369;49.906;8.598;2022-09-09T07:24:05;16.80;99.90
6666;DHT22;3369;49.906;8.598;2022-09-09T07:26:33;16.80;99.90
6666;DHT22;3369;49.906;8.598;2022-09-09T07:29:00;16.80;99.90
6666;DHT22;3369;49.906;8.598;2022-09-09T07:31:34;16.80;99.90
6666;DHT22;3369;49.906;8.598;2022-09-09T07:34:02;16.90;99.90
6666;DHT22;3369;49.906;8.598;2022-09-09T07:36:38;16.90;99.90
6666;DHT22;3369;49.906;8.598;2022-09-09T07:39:10;16.90;99.90
6666;DHT22;3369;49.906;8.598;2022-09-09T07:41:38;16.90;99.90
6666;DHT22;3369;49.906;8.598;2022-09-09T07:44:10;16.90;99.90
6666;DHT22;3369;49.906;8.598;2022-09-09T07:46:36;16.90;99.90
6666;DHT22;3369;49.906;8.598;2022-09-09T07:49:02;17.00;99.90
6666;DHT22;3369;49.906;8.598;2022-09-09T07:51:34;17.00;99.90
6666;DHT22;3369;49.906;8.598;2022-09-09T07:54:03;17.00;99.90
6666;DHT22;3369;49.906;8.598;2022-09-09T07:56:29;17.10;99.90
6666;DHT22;3369;49.906;8.598;2022-09-09T07:58:56;17.20;99.90
6666;DHT22;3369;49.906;8.598;2022-09-09T08:01:30;17.20;99.90
6666;DHT22;3369;49.906;8.598;2022-09-09T08:04:00;17.30;99.90
6666;DHT22;3369;49.906;8.598;2022-09-09T08:06:31;17.30;99.90
6666;DHT22;3369;49.906;8.598;2022-09-09T08:08:58;17.40;99.90
6666;DHT22;3369;49.906;8.598;2022-09-09T08:11:25;17.50;99.90
6666;DHT22;3369;49.906;8.598;2022-09-09T08:13:52;17.50;99.90
6666;DHT22;3369;49.906;8.598;2022-09-09T08:16:21;17.50;99.90
6666;DHT22;3369;49.906;8.598;2022-09-09T08:18:51;17.50;99.90
6666;DHT22;3369;49.906;8.598;2022-09-09T08:21:25;17.50;99.90
6666;DHT22;3369;49.906;8.598;2022-09-09T08:23:54;17.60;99.90
6666;DHT22;3369;49.906;8.598;2022-09-09T08:26:32;17.60;99.90
6666;DHT22;3369;49.906;8.598;2022-09-09T08:29:00;17.60;99.90
6666;DHT22;3369;49.906;8.598;2022-09-09T08:31:32;17.60;99.90
6666;DHT22;3369;49.906;8.598;2022-09-09T08:33:59;17.70;99.90
6666;DHT22;3369;49.906;8.598;2022-09-09T08:36:27;17.70;99.90
6666;DHT22;3369;49.906;8.598;2022-09-09T08:38:56;17.80;99.90
6666;DHT22;3369;49.906;8.598;2022-09-09T08:47:35;17.80;99.90
6666;DHT22;3369;49.906;8.598;2022-09-09T08:50:32;17.80;99.90
6666;DHT22;3369;49.906;8.598;2022-09-09T08:58:28;17.80;99.90
6666;DHT22;3369;49.906;8.598;2022-09-09T09:03:51;17.90;99.90
6666;DHT22;3369;49.906;8.598;2022-09-09T09:09:11;17.90;99.90
6666;DHT22;3369;49.906;8.598;2022-09-09T09:11:45;17.90;99.90
6666;DHT22;3369;49.906;8.598;2022-09-09T09:14:24;17.90;99.90
6666;DHT22;3369;49.906;8.598;2022-09-09T09:17:13;17.90;99.90
6666;DHT22;3369;49.906;8.598;2022-09-09T09:19:41;17.90;99.90
6666;DHT22;3369;49.906;8.598;2022-09-09T09:25:02;17.90;99.90
6666;DHT22;3369;49.906;8.598;2022-09-09T09:27:43;17.80;99.90
6666;DHT22;3369;49.906;8.598;2022-09-09T09:30:18;17.80;99.90
6666;DHT22;3369;49.906;8.598;2022-09-09T09:32:55;17.80;99.90
6666;DHT22;3369;49.906;8.598;2022-09-09T09:35:21;17.90;99.90
6666;DHT22;3369;49.906;8.598;2022-09-09T09:37:48;18.10;99.90
6666;DHT22;3369;49.906;8.598;2022-09-09T09:40:16;18.50;99.90
6666;DHT22;3369;49.906;8.598;2022-09-09T09:42:59;18.70;99.90
6666;DHT22;3369;49.906;8.598;2022-09-09T09:45:31;18.90;99.90
6666;DHT22;3369;49.906;8.598;2022-09-09T09:48:09;19.00;99.90
6666;DHT22;3369;49.906;8.598;2022-09-09T09:53:37;18.90;99.90
6666;DHT22;3369;49.906;8.598;2022-09-09T09:56:06;19.00;99.90
6666;DHT22;3369;49.906;8.598;2022-09-09T09:58:51;19.10;99.90
6666;DHT22;3369;49.906;8.598;2022-09-09T10:01:30;19.30;99.90
6666;DHT22;3369;49.906;8.598;2022-09-09T10:04:14;19.60;99.90
6666;DHT22;3369;49.906;8.598;2022-09-09T10:06:41;20.00;99.90
6666;DHT22;3369;49.906;8.598;2022-09-09T10:09:28;20.30;99.90
6666;DHT22;3369;49.906;8.598;2022-09-09T10:36:16;21.20;98.00
6666;DHT22;3369;49.906;8.598;2022-09-09T10:38:52;21.30;97.00
6666;DHT22;3369;49.906;8.598;2022-09-09T10:41:44;21.20;96.10
6666;DHT22;3369;49.906;8.598;2022-09-09T10:55:29;21.00;97.30
6666;DHT22;3369;49.906;8.598;2022-09-09T10:58:00;21.10;96.90
6666;DHT22;3369;49.906;8.598;2022-09-09T11:00:41;21.30;97.20
6666;DHT22;3369;49.906;8.598;2022-09-09T11:03:25;21.60;96.70
6666;DHT22;3369;49.906;8.598;2022-09-09T11:05:52;21.70;95.50
6666;DHT22;3369;49.906;8.598;2022-09-09T11:08:21;21.60;94.60
6666;DHT22;3369;49.906;8.598;2022-09-09T11:11:03;21.50;94.50
6666;DHT22;3369;49.906;8.598;2022-09-09T11:16:04;21.30;92.70
6666;DHT22;3369;49.906;8.598;2022-09-09T11:18:35;21.20;92.60
6666;DHT22;3369;49.906;8.598;2022-09-09T11:21:04;21.10;93.60
6666;DHT22;3369;49.906;8.598;2022-09-09T11:24:00;21.10;94.00
6666;DHT22;3369;49.906;8.598;2022-09-09T11:26:44;21.20;93.40
6666;DHT22;3369;49.906;8.598;2022-09-09T11:32:33;21.30;92.70
6666;DHT22;3369;49.906;8.598;2022-09-09T11:40:32;21.70;92.70
6666;DHT22;3369;49.906;8.598;2022-09-09T11:43:10;21.80;93.00
6666;DHT22;3369;49.906;8.598;2022-09-09T11:45:38;21.90;92.30
6666;DHT22;3369;49.906;8.598;2022-09-09T11:48:05;22.00;92.80
6666;DHT22;3369;49.906;8.598;2022-09-09T11:50:35;22.10;93.10
6666;DHT22;3369;49.906;8.598;2022-09-09T11:55:39;21.90;93.00
6666;DHT22;3369;49.906;8.598;2022-09-09T11:58:17;21.70;92.80
6666;DHT22;3369;49.906;8.598;2022-09-09T12:00:48;21.50;92.70
6666;DHT22;3369;49.906;8.598;2022-09-09T12:06:17;21.40;93.50
6666;DHT22;3369;49.906;8.598;2022-09-09T12:08:49;21.30;93.20
6666;DHT22;3369;49.906;8.598;2022-09-09T12:11:26;21.20;93.30
6666;DHT22;3369;49.906;8.598;2022-09-09T12:13:57;21.10;93.20
6666;DHT22;3369;49.906;8.598;2022-09-09T12:16:35;21.00;93.40
6666;DHT22;3369;49.906;8.598;2022-09-09T12:19:15;21.00;94.00
6666;DHT22;3369;49.906;8.598;2022-09-09T12:22:04;21.20;94.30
6666;DHT22;3369;49.906;8.598;2022-09-09T12:24:52;21.30;94.20
6666;DHT22;3369;49.906;8.598;2022-09-09T12:27:28;21.40;94.00
6666;DHT22;3369;49.906;8.598;2022-09-09T12:30:03;21.40;93.60
6666;DHT22;3369;49.906;8.598;2022-09-09T12:32:30;21.30;92.90
6666;DHT22;3369;49.906;8.598;2022-09-09T12:35:20;21.20;93.00
6666;DHT22;3369;49.906;8.598;2022-09-09T12:37:56;21.10;93.90
6666;DHT22;3369;49.906;8.598;2022-09-09T12:40:41;21.00;95.20
6666;DHT22;3369;49.906;8.598;2022-09-09T12:43:21;20.80;95.80
6666;DHT22;3369;49.906;8.598;2022-09-09T12:45:49;20.70;95.40
6666;DHT22;3369;49.906;8.598;2022-09-09T12:48:26;20.50;94.60
6666;DHT22;3369;49.906;8.598;2022-09-09T12:50:53;20.40;92.90
6666;DHT22;3369;49.906;8.598;2022-09-09T12:53:33;20.40;92.90
6666;DHT22;3369;49.906;8.598;2022-09-09T12:56:08;20.40;92.10
6666;DHT22;3369;49.906;8.598;2022-09-09T12:58:38;20.40;90.80
6666;DHT22;3369;49.906;8.598;2022-09-09T13:01:06;20.30;91.00
6666;DHT22;3369;49.906;8.598;2022-09-09T13:03:33;20.30;90.50
6666;DHT22;3369;49.906;8.598;2022-09-09T13:06:11;20.30;90.00
6666;DHT22;3369;49.906;8.598;2022-09-09T13:08:37;20.20;88.30
6666;DHT22;3369;49.906;8.598;2022-09-09T13:11:08;20.00;87.30
6666;DHT22;3369;49.906;8.598;2022-09-09T13:13:41;19.90;88.30
6666;DHT22;3369;49.906;8.598;2022-09-09T13:16:33;19.80;88.80
6666;DHT22;3369;49.906;8.598;2022-09-09T13:19:08;19.60;89.00
6666;DHT22;3369;49.906;8.598;2022-09-09T13:21:39;19.50;89.20
6666;DHT22;3369;49.906;8.598;2022-09-09T13:24:29;19.40;89.60
6666;DHT22;3369;49.906;8.598;2022-09-09T13:27:05;19.40;90.10
6666;DHT22;3369;49.906;8.598;2022-09-09T13:29:51;19.30;90.40
6666;DHT22;3369;49.906;8.598;2022-09-09T13:32:21;19.20;90.70
6666;DHT22;3369;49.906;8.598;2022-09-09T13:34:55;19.20;90.90
6666;DHT22;3369;49.906;8.598;2022-09-09T13:37:36;19.20;91.20
6666;DHT22;3369;49.906;8.598;2022-09-09T13:40:04;19.10;91.20
6666;DHT22;3369;49.906;8.598;2022-09-09T13:42:38;19.10;91.40
6666;DHT22;3369;49.906;8.598;2022-09-09T13:45:05;19.10;91.60
6666;DHT22;3369;49.906;8.598;2022-09-09T13:47:33;19.10;91.80
6666;DHT22;3369;49.906;8.598;2022-09-09T13:50:26;19.20;92.20
6666;DHT22;3369;49.906;8.598;2022-09-09T14:13:03;19.90;91.20
6666;DHT22;3369;49.906;8.598;2022-09-09T14:15:29;19.80;91.40
6666;DHT22;3369;49.906;8.598;2022-09-09T14:17:54;19.60;91.90
6666;DHT22;3369;49.906;8.598;2022-09-09T14:20:21;19.50;91.70
6666;DHT22;3369;49.906;8.598;2022-09-09T14:22:47;19.40;92.70
6666;DHT22;3369;49.906;8.598;2022-09-09T14:25:13;19.30;92.70
6666;DHT22;3369;49.906;8.598;2022-09-09T14:27:39;19.20;92.90
6666;DHT22;3369;49.906;8.598;2022-09-09T14:30:06;19.10;93.30
6666;DHT22;3369;49.906;8.598;2022-09-09T14:32:31;19.10;94.30
6666;DHT22;3369;49.906;8.598;2022-09-09T14:34:58;19.00;94.90
6666;DHT22;3369;49.906;8.598;2022-09-09T14:37:24;19.00;95.60
6666;DHT22;3369;49.906;8.598;2022-09-09T14:39:49;19.00;96.00
6666;DHT22;3369;49.906;8.598;2022-09-09T14:42:16;19.00;96.50
6666;DHT22;3369;49.906;8.598;2022-09-09T14:44:41;19.00;96.90
6666;DHT22;3369;49.906;8.598;2022-09-09T14:47:08;19.00;97.10
6666;DHT22;3369;49.906;8.598;2022-09-09T14:49:37;19.00;97.70
6666;DHT22;3369;49.906;8.598;2022-09-09T14:52:03;19.00;97.60
6666;DHT22;3369;49.906;8.598;2022-09-09T14:54:29;19.00;97.50
6666;DHT22;3369;49.906;8.598;2022-09-09T14:56:55;19.00;97.30
6666;DHT22;3369;49.906;8.598;2022-09-09T14:59:22;19.00;97.30
6666;DHT22;3369;49.906;8.598;2022-09-09T15:01:48;19.00;97.20
6666;DHT22;3369;49.906;8.598;2022-09-09T15:04:14;19.00;97.00
6666;DHT22;3369;49.906;8.598;2022-09-09T15:06:43;19.00;96.90
6666;DHT22;3369;49.906;8.598;2022-09-09T15:09:13;19.00;96.70
6666;DHT22;3369;49.906;8.598;2022-09-09T15:11:39;19.00;96.50
6666;DHT22;3369;49.906;8.598;2022-09-09T15:14:06;19.10;96.50
6666;DHT22;3369;49.906;8.598;2022-09-09T15:16:32;19.00;96.50
6666;DHT22;3369;49.906;8.598;2022-09-09T15:19:00;19.10;96.40
6666;DHT22;3369;49.906;8.598;2022-09-09T15:21:28;19.00;96.50
6666;DHT22;3369;49.906;8.598;2022-09-09T15:23:55;19.10;96.60
6666;DHT22;3369;49.906;8.598;2022-09-09T15:26:22;19.10;96.40
6666;DHT22;3369;49.906;8.598;2022-09-09T15:28:48;19.10;96.60
6666;DHT22;3369;49.906;8.598;2022-09-09T15:31:26;19.10;96.90
6666;DHT22;3369;49.906;8.598;2022-09-09T15:33:55;19.20;97.00
6666;DHT22;3369;49.906;8.598;2022-09-09T15:36:32;19.20;97.10
6666;DHT22;3369;49.906;8.598;2022-09-09T15:39:02;19.30;97.30
6666;DHT22;3369;49.906;8.598;2022-09-09T15:41:29;19.30;97.50
6666;DHT22;3369;49.906;8.598;2022-09-09T15:43:56;19.30;97.80
6666;DHT22;3369;49.906;8.598;2022-09-09T15:46:39;19.30;98.10
6666;DHT22;3369;49.906;8.598;2022-09-09T15:49:19;19.40;98.30
6666;DHT22;3369;49.906;8.598;2022-09-09T15:51:54;19.40;98.30
6666;DHT22;3369;49.906;8.598;2022-09-09T15:54:21;19.40;98.70
6666;DHT22;3369;49.906;8.598;2022-09-09T15:56:54;19.40;98.90
6666;DHT22;3369;49.906;8.598;2022-09-09T15:59:25;19.40;99.20
6666;DHT22;3369;49.906;8.598;2022-09-09T16:01:51;19.30;99.10
6666;DHT22;3369;49.906;8.598;2022-09-09T16:04:18;19.20;98.90
6666;DHT22;3369;49.906;8.598;2022-09-09T16:06:56;19.20;99.00
6666;DHT22;3369;49.906;8.598;2022-09-09T16:09:23;19.20;99.10
6666;DHT22;3369;49.906;8.598;2022-09-09T16:11:50;19.10;99.10
6666;DHT22;3369;49.906;8.598;2022-09-09T16:14:16;19.10;99.40
6666;DHT22;3369;49.906;8.598;2022-09-09T16:16:43;19.00;99.60
6666;DHT22;3369;49.906;8.598;2022-09-09T16:19:11;19.00;99.70
6666;DHT22;3369;49.906;8.598;2022-09-09T16:21:43;19.00;99.90
6666;DHT22;3369;49.906;8.598;2022-09-09T16:24:11;19.00;99.90
6666;DHT22;3369;49.906;8.598;2022-09-09T16:26:40;18.90;99.70
6666;DHT22;3369;49.906;8.598;2022-09-09T16:29:06;18.90;99.00
6666;DHT22;3369;49.906;8.598;2022-09-09T16:31:32;18.80;98.70
6666;DHT22;3369;49.906;8.598;2022-09-09T16:33:58;18.80;98.40
6666;DHT22;3369;49.906;8.598;2022-09-09T16:36:28;18.70;98.20
6666;DHT22;3369;49.906;8.598;2022-09-09T16:39:01;18.70;98.10
6666;DHT22;3369;49.906;8.598;2022-09-09T16:41:29;18.60;98.10
6666;DHT22;3369;49.906;8.598;2022-09-09T16:44:00;18.60;98.20
6666;DHT22;3369;49.906;8.598;2022-09-09T16:46:28;18.50;98.30
6666;DHT22;3369;49.906;8.598;2022-09-09T16:48:56;18.50;98.40
6666;DHT22;3369;49.906;8.598;2022-09-09T16:51:24;18.50;98.50
6666;DHT22;3369;49.906;8.598;2022-09-09T16:53:52;18.50;98.50
6666;DHT22;3369;49.906;8.598;2022-09-09T16:56:21;18.40;98.50
6666;DHT22;3369;49.906;8.598;2022-09-09T16:58:52;18.40;98.50
6666;DHT22;3369;49.906;8.598;2022-09-09T17:01:19;18.40;98.60
6666;DHT22;3369;49.906;8.598;2022-09-09T17:03:44;18.30;98.60
6666;DHT22;3369;49.906;8.598;2022-09-09T17:06:12;18.30;98.70
6666;DHT22;3369;49.906;8.598;2022-09-09T17:08:39;18.30;98.80
6666;DHT22;3369;49.906;8.598;2022-09-09T17:11:15;18.30;98.90
6666;DHT22;3369;49.906;8.598;2022-09-09T17:13:43;18.20;98.90
6666;DHT22;3369;49.906;8.598;2022-09-09T17:16:09;18.20;99.00
6666;DHT22;3369;49.906;8.598;2022-09-09T17:18:36;18.10;99.20
6666;DHT22;3369;49.906;8.598;2022-09-09T17:21:03;18.10;99.80
6666;DHT22;3369;49.906;8.598;2022-09-09T17:23:29;18.00;99.70
6666;DHT22;3369;49.906;8.598;2022-09-09T17:25:59;18.00;99.90
6666;DHT22;3369;49.906;8.598;2022-09-09T17:28:26;17.90;99.90
6666;DHT22;3369;49.906;8.598;2022-09-09T17:30:59;17.80;99.90
6666;DHT22;3369;49.906;8.598;2022-09-09T17:33:30;17.80;99.90
6666;DHT22;3369;49.906;8.598;2022-09-09T17:36:01;17.70;99.90
6666;DHT22;3369;49.906;8.598;2022-09-09T17:38:28;17.60;99.90
6666;DHT22;3369;49.906;8.598;2022-09-09T17:43:35;17.40;99.90
6666;DHT22;3369;49.906;8.598;2022-09-09T17:48:36;17.10;99.90
6666;DHT22;3369;49.906;8.598;2022-09-09T17:51:09;17.00;99.90
6666;DHT22;3369;49.906;8.598;2022-09-09T17:53:42;16.90;99.90
6666;DHT22;3369;49.906;8.598;2022-09-09T17:56:10;16.90;99.90
6666;DHT22;3369;49.906;8.598;2022-09-09T17:58:36;16.80;99.90
6666;DHT22;3369;49.906;8.598;2022-09-09T18:01:07;16.80;99.90
6666;DHT22;3369;49.906;8.598;2022-09-09T18:03:35;16.80;99.90
6666;DHT22;3369;49.906;8.598;2022-09-09T18:06:07;16.70;99.90
6666;DHT22;3369;49.906;8.598;2022-09-09T18:08:35;16.60;99.90
6666;DHT22;3369;49.906;8.598;2022-09-09T18:11:02;16.60;99.90
6666;DHT22;3369;49.906;8.598;2022-09-09T18:13:28;16.60;99.90
6666;DHT22;3369;49.906;8.598;2022-09-09T18:15:54;16.60;99.90
6666;DHT22;3369;49.906;8.598;2022-09-09T18:18:20;16.50;99.90
6666;DHT22;3369;49.906;8.598;2022-09-09T18:20:58;16.60;99.90
6666;DHT22;3369;49.906;8.598;2022-09-09T18:23:24;16.50;99.90
6666;DHT22;3369;49.906;8.598;2022-09-09T18:25:49;16.50;99.90
6666;DHT22;3369;49.906;8.598;2022-09-09T18:28:16;16.50;99.90
6666;DHT22;3369;49.906;8.598;2022-09-09T18:30:42;16.50;99.90
6666;DHT22;3369;49.906;8.598;2022-09-09T18:33:07;16.50;99.90
6666;DHT22;3369;49.906;8.598;2022-09-09T18:35:35;16.50;99.90
6666;DHT22;3369;49.906;8.598;2022-09-09T18:38:01;16.50;99.90
6666;DHT22;3369;49.906;8.598;2022-09-09T18:40:30;16.40;99.90
6666;DHT22;3369;49.906;8.598;2022-09-09T18:42:55;16.40;99.90
6666;DHT22;3369;49.906;8.598;2022-09-09T18:45:21;16.30;99.90
6666;DHT22;3369;49.906;8.598;2022-09-09T18:47:47;16.30;99.90
6666;DHT22;3369;49.906;8.598;2022-09-09T18:50:13;16.20;99.90
6666;DHT22;3369;49.906;8.598;2022-09-09T18:52:40;16.20;99.90